sensor_id;sensor_type;location;lat;lon;timestamp;temperature;humidity
61386;DHT22;47256;18.904;-99.054;2023-06-01T00:02:06;31.50;70.80
61386;DHT22;47256;18.904;-99.054;2023-06-01T00:04:33;31.40;70.90
61386;DHT22;47256;18.904;-99.054;2023-06-01T00:07:09;31.50;71.00
61386;DHT22;47256;18.904;-99.054;2023-06-01T00:09:37;31.50;71.30
61386;DHT22;47256;18.904;-99.054;2023-06-01T00:12:04;31.50;70.80
61386;DHT22;47256;18.904;-99.054;2023-06-01T00:14:32;31.50;70.90
61386;DHT22;47256;18.904;-99.054;2023-06-01T00:16:59;31.50;71.00
61386;DHT22;47256;18.904;-99.054;2023-06-01T00:19:26;31.50;71.10
61386;DHT22;47256;18.904;-99.054;2023-06-01T00:21:54;31.50;71.10
61386;DHT22;47256;18.904;-99.054;2023-06-01T00:24:22;31.50;71.10
61386;DHT22;47256;18.904;-99.054;2023-06-01T00:26:49;31.50;71.30
61386;DHT22;47256;18.904;-99.054;2023-06-01T00:29:18;31.50;71.50
61386;DHT22;47256;18.904;-99.054;2023-06-01T00:31:45;31.50;72.00
61386;DHT22;47256;18.904;-99.054;2023-06-01T00:34:12;31.40;71.80
61386;DHT22;47256;18.904;-99.054;2023-06-01T00:36:40;31.40;72.50
61386;DHT22;47256;18.904;-99.054;2023-06-01T00:39:07;31.40;72.60
61386;DHT22;47256;18.904;-99.054;2023-06-01T00:41:34;31.40;72.70
61386;DHT22;47256;18.904;-99.054;2023-06-01T00:44:01;31.30;72.70
61386;DHT22;47256;18.904;-99.054;2023-06-01T00:46:30;31.30;72.90
61386;DHT22;47256;18.904;-99.054;2023-06-01T00:48:58;31.30;72.90
61386;DHT22;47256;18.904;-99.054;2023-06-01T00:51:26;31.30;73.00
61386;DHT22;47256;18.904;-99.054;2023-06-01T00:53:53;31.20;73.60
61386;DHT22;47256;18.904;-99.054;2023-06-01T00:56:20;31.20;74.20
61386;DHT22;47256;18.904;-99.054;2023-06-01T00:58:48;31.20;74.30
61386;DHT22;47256;18.904;-99.054;2023-06-01T01:01:16;31.20;74.20
61386;DHT22;47256;18.904;-99.054;2023-06-01T01:03:52;31.20;74.10
61386;DHT22;47256;18.904;-99.054;2023-06-01T01:06:51;31.30;75.30
61386;DHT22;47256;18.904;-99.054;2023-06-01T01:12:26;31.30;75.50
61386;DHT22;47256;18.904;-99.054;2023-06-01T01:18:02;31.40;75.80
61386;DHT22;47256;18.904;-99.054;2023-06-01T01:20:40;31.40;75.90
61386;DHT22;47256;18.904;-99.054;2023-06-01T01:29:10;31.30;76.60
61386;DHT22;47256;18.904;-99.054;2023-06-01T01:31:38;31.30;76.40
61386;DHT22;47256;18.904;-99.054;2023-06-01T01:34:08;31.20;76.80
61386;DHT22;47256;18.904;-99.054;2023-06-01T01:36:36;31.20;77.80
61386;DHT22;47256;18.904;-99.054;2023-06-01T01:39:04;31.20;77.10
61386;DHT22;47256;18.904;-99.054;2023-06-01T01:41:32;31.20;76.60
61386;DHT22;47256;18.904;-99.054;2023-06-01T01:43:59;31.20;76.10
61386;DHT22;47256;18.904;-99.054;2023-06-01T01:47:11;31.20;76.60
61386;DHT22;47256;18.904;-99.054;2023-06-01T01:49:20;31.10;77.30
61386;DHT22;47256;18.904;-99.054;2023-06-01T01:54:28;31.10;76.40
61386;DHT22;47256;18.904;-99.054;2023-06-01T01:56:58;31.10;76.10
61386;DHT22;47256;18.904;-99.054;2023-06-01T01:59:28;31.10;75.50
61386;DHT22;47256;18.904;-99.054;2023-06-01T02:01:56;31.10;75.70
61386;DHT22;47256;18.904;-99.054;2023-06-01T02:04:25;31.10;76.20
61386;DHT22;47256;18.904;-99.054;2023-06-01T02:06:52;31.00;76.30
61386;DHT22;47256;18.904;-99.054;2023-06-01T02:09:19;30.90;76.10
61386;DHT22;47256;18.904;-99.054;2023-06-01T02:11:46;30.90;76.00
61386;DHT22;47256;18.904;-99.054;2023-06-01T02:14:14;30.90;77.50
61386;DHT22;47256;18.904;-99.054;2023-06-01T02:16:41;30.90;77.00
61386;DHT22;47256;18.904;-99.054;2023-06-01T02:19:11;30.90;76.90
61386;DHT22;47256;18.904;-99.054;2023-06-01T02:21:38;30.90;76.60
61386;DHT22;47256;18.904;-99.054;2023-06-01T02:24:05;30.80;76.30
61386;DHT22;47256;18.904;-99.054;2023-06-01T02:26:34;30.80;76.70
61386;DHT22;47256;18.904;-99.054;2023-06-01T02:29:01;30.80;77.30
61386;DHT22;47256;18.904;-99.054;2023-06-01T02:31:32;30.80;77.50
61386;DHT22;47256;18.904;-99.054;2023-06-01T02:33:59;30.70;77.00
61386;DHT22;47256;18.904;-99.054;2023-06-01T02:36:28;30.70;77.30
61386;DHT22;47256;18.904;-99.054;2023-06-01T02:38:56;30.70;77.40
61386;DHT22;47256;18.904;-99.054;2023-06-01T02:41:23;30.60;77.60
61386;DHT22;47256;18.904;-99.054;2023-06-01T02:43:50;30.60;78.20
61386;DHT22;47256;18.904;-99.054;2023-06-01T02:46:20;30.60;80.10
61386;DHT22;47256;18.904;-99.054;2023-06-01T02:48:48;30.60;79.20
61386;DHT22;47256;18.904;-99.054;2023-06-01T02:51:17;30.60;80.00
61386;DHT22;47256;18.904;-99.054;2023-06-01T02:53:48;30.50;80.00
61386;DHT22;47256;18.904;-99.054;2023-06-01T02:56:15;30.50;79.90
61386;DHT22;47256;18.904;-99.054;2023-06-01T02:59:02;30.40;79.80
61386;DHT22;47256;18.904;-99.054;2023-06-01T03:01:34;30.40;80.30
61386;DHT22;47256;18.904;-99.054;2023-06-01T03:04:04;30.40;80.20
61386;DHT22;47256;18.904;-99.054;2023-06-01T03:06:32;30.30;80.40
61386;DHT22;47256;18.904;-99.054;2023-06-01T03:09:22;30.20;80.40
61386;DHT22;47256;18.904;-99.054;2023-06-01T03:11:56;30.20;81.90
61386;DHT22;47256;18.904;-99.054;2023-06-01T03:14:25;30.20;81.90
61386;DHT22;47256;18.904;-99.054;2023-06-01T03:16:52;30.20;80.90
61386;DHT22;47256;18.904;-99.054;2023-06-01T03:19:21;30.20;80.30
61386;DHT22;47256;18.904;-99.054;2023-06-01T03:21:52;30.20;80.70
61386;DHT22;47256;18.904;-99.054;2023-06-01T03:24:22;30.10;80.40
61386;DHT22;47256;18.904;-99.054;2023-06-01T03:26:54;30.10;80.70
61386;DHT22;47256;18.904;-99.054;2023-06-01T03:29:22;30.10;80.90
61386;DHT22;47256;18.904;-99.054;2023-06-01T03:31:51;30.10;81.00
61386;DHT22;47256;18.904;-99.054;2023-06-01T03:34:26;30.00;82.10
61386;DHT22;47256;18.904;-99.054;2023-06-01T03:36:54;29.90;82.70
61386;DHT22;47256;18.904;-99.054;2023-06-01T03:39:23;29.90;83.20
61386;DHT22;47256;18.904;-99.054;2023-06-01T03:41:50;29.80;83.80
61386;DHT22;47256;18.904;-99.054;2023-06-01T03:44:17;29.70;82.60
61386;DHT22;47256;18.904;-99.054;2023-06-01T03:46:45;29.70;82.70
61386;DHT22;47256;18.904;-99.054;2023-06-01T03:49:13;29.70;82.90
61386;DHT22;47256;18.904;-99.054;2023-06-01T03:51:40;29.70;82.40
61386;DHT22;47256;18.904;-99.054;2023-06-01T03:54:07;29.70;82.80
61386;DHT22;47256;18.904;-99.054;2023-06-01T03:56:35;29.60;83.80
61386;DHT22;47256;18.904;-99.054;2023-06-01T03:59:04;29.60;83.30
61386;DHT22;47256;18.904;-99.054;2023-06-01T04:01:33;29.60;82.80
61386;DHT22;47256;18.904;-99.054;2023-06-01T04:04:08;29.60;82.50
61386;DHT22;47256;18.904;-99.054;2023-06-01T04:06:35;29.60;82.80
61386;DHT22;47256;18.904;-99.054;2023-06-01T04:09:04;29.60;83.00
61386;DHT22;47256;18.904;-99.054;2023-06-01T04:11:36;29.60;82.70
61386;DHT22;47256;18.904;-99.054;2023-06-01T04:14:03;29.60;84.10
61386;DHT22;47256;18.904;-99.054;2023-06-01T04:16:31;29.60;84.70
61386;DHT22;47256;18.904;-99.054;2023-06-01T04:19:02;29.50;84.60
61386;DHT22;47256;18.904;-99.054;2023-06-01T04:21:31;29.40;85.40
61386;DHT22;47256;18.904;-99.054;2023-06-01T04:23:58;29.40;85.90
61386;DHT22;47256;18.904;-99.054;2023-06-01T04:26:25;29.40;84.90
61386;DHT22;47256;18.904;-99.054;2023-06-01T04:28:55;29.40;85.00
61386;DHT22;47256;18.904;-99.054;2023-06-01T04:31:23;29.30;86.10
61386;DHT22;47256;18.904;-99.054;2023-06-01T04:33:51;29.20;86.70
61386;DHT22;47256;18.904;-99.054;2023-06-01T04:36:24;29.20;85.90
61386;DHT22;47256;18.904;-99.054;2023-06-01T04:38:56;29.20;86.10
61386;DHT22;47256;18.904;-99.054;2023-06-01T04:41:24;29.10;85.80
61386;DHT22;47256;18.904;-99.054;2023-06-01T04:43:54;29.10;85.40
61386;DHT22;47256;18.904;-99.054;2023-06-01T04:46:24;29.10;86.10
61386;DHT22;47256;18.904;-99.054;2023-06-01T04:48:56;29.10;86.30
61386;DHT22;47256;18.904;-99.054;2023-06-01T04:51:25;29.10;86.30
61386;DHT22;47256;18.904;-99.054;2023-06-01T04:53:54;29.10;86.40
61386;DHT22;47256;18.904;-99.054;2023-06-01T04:56:24;29.00;86.50
61386;DHT22;47256;18.904;-99.054;2023-06-01T04:58:54;29.00;87.10
61386;DHT22;47256;18.904;-99.054;2023-06-01T05:01:45;29.00;86.50
61386;DHT22;47256;18.904;-99.054;2023-06-01T05:04:13;29.00;88.10
61386;DHT22;47256;18.904;-99.054;2023-06-01T05:06:40;28.80;87.30
61386;DHT22;47256;18.904;-99.054;2023-06-01T05:09:08;28.80;87.60
61386;DHT22;47256;18.904;-99.054;2023-06-01T05:11:35;28.70;87.80
61386;DHT22;47256;18.904;-99.054;2023-06-01T05:14:02;28.60;87.70
61386;DHT22;47256;18.904;-99.054;2023-06-01T05:16:31;28.50;87.30
61386;DHT22;47256;18.904;-99.054;2023-06-01T05:18:59;28.50;86.70
61386;DHT22;47256;18.904;-99.054;2023-06-01T05:21:27;28.60;87.20
61386;DHT22;47256;18.904;-99.054;2023-06-01T05:23:55;28.60;89.00
61386;DHT22;47256;18.904;-99.054;2023-06-01T05:26:24;28.60;89.80
61386;DHT22;47256;18.904;-99.054;2023-06-01T05:28:52;28.50;90.20
61386;DHT22;47256;18.904;-99.054;2023-06-01T05:31:19;28.50;89.70
61386;DHT22;47256;18.904;-99.054;2023-06-01T05:33:52;28.60;89.60
61386;DHT22;47256;18.904;-99.054;2023-06-01T05:36:20;28.60;88.50
61386;DHT22;47256;18.904;-99.054;2023-06-01T05:38:47;28.60;90.00
61386;DHT22;47256;18.904;-99.054;2023-06-01T05:41:14;28.70;89.70
61386;DHT22;47256;18.904;-99.054;2023-06-01T05:43:41;28.70;88.50
61386;DHT22;47256;18.904;-99.054;2023-06-01T05:46:09;28.70;87.20
61386;DHT22;47256;18.904;-99.054;2023-06-01T05:48:37;28.70;87.90
61386;DHT22;47256;18.904;-99.054;2023-06-01T05:51:04;28.70;87.80
61386;DHT22;47256;18.904;-99.054;2023-06-01T05:53:31;28.70;87.30
61386;DHT22;47256;18.904;-99.054;2023-06-01T05:56:00;28.70;87.30
61386;DHT22;47256;18.904;-99.054;2023-06-01T05:58:26;28.60;87.20
61386;DHT22;47256;18.904;-99.054;2023-06-01T06:00:54;28.50;87.40
61386;DHT22;47256;18.904;-99.054;2023-06-01T06:03:22;28.50;88.20
61386;DHT22;47256;18.904;-99.054;2023-06-01T06:05:49;28.50;88.60
61386;DHT22;47256;18.904;-99.054;2023-06-01T06:08:17;28.50;88.20
61386;DHT22;47256;18.904;-99.054;2023-06-01T06:10:44;28.50;88.30
61386;DHT22;47256;18.904;-99.054;2023-06-01T06:13:11;28.40;88.70
61386;DHT22;47256;18.904;-99.054;2023-06-01T06:15:38;28.40;89.40
61386;DHT22;47256;18.904;-99.054;2023-06-01T06:18:05;28.40;89.70
61386;DHT22;47256;18.904;-99.054;2023-06-01T06:20:33;28.40;89.90
61386;DHT22;47256;18.904;-99.054;2023-06-01T06:23:01;28.20;90.20
61386;DHT22;47256;18.904;-99.054;2023-06-01T06:25:28;28.20;90.50
61386;DHT22;47256;18.904;-99.054;2023-06-01T06:27:55;28.20;90.90
61386;DHT22;47256;18.904;-99.054;2023-06-01T06:30:22;28.10;90.60
61386;DHT22;47256;18.904;-99.054;2023-06-01T06:32:51;28.20;90.90
61386;DHT22;47256;18.904;-99.054;2023-06-01T06:35:18;28.20;90.80
61386;DHT22;47256;18.904;-99.054;2023-06-01T06:37:45;28.30;91.10
61386;DHT22;47256;18.904;-99.054;2023-06-01T06:40:12;28.30;91.40
61386;DHT22;47256;18.904;-99.054;2023-06-01T06:42:39;28.20;91.20
61386;DHT22;47256;18.904;-99.054;2023-06-01T06:45:07;28.30;90.90
61386;DHT22;47256;18.904;-99.054;2023-06-01T06:47:34;28.30;90.70
61386;DHT22;47256;18.904;-99.054;2023-06-01T06:50:01;28.20;91.10
61386;DHT22;47256;18.904;-99.054;2023-06-01T06:52:28;28.20;91.40
61386;DHT22;47256;18.904;-99.054;2023-06-01T06:54:56;28.20;91.50
61386;DHT22;47256;18.904;-99.054;2023-06-01T06:57:23;28.20;92.00
61386;DHT22;47256;18.904;-99.054;2023-06-01T06:59:50;28.10;91.70
61386;DHT22;47256;18.904;-99.054;2023-06-01T07:02:18;28.10;91.80
61386;DHT22;47256;18.904;-99.054;2023-06-01T07:04:45;28.10;91.90
61386;DHT22;47256;18.904;-99.054;2023-06-01T07:07:13;28.10;91.70
61386;DHT22;47256;18.904;-99.054;2023-06-01T07:09:40;28.20;91.70
61386;DHT22;47256;18.904;-99.054;2023-06-01T07:12:07;28.20;91.50
61386;DHT22;47256;18.904;-99.054;2023-06-01T07:14:35;28.20;91.60
61386;DHT22;47256;18.904;-99.054;2023-06-01T07:17:02;28.30;91.70
61386;DHT22;47256;18.904;-99.054;2023-06-01T07:19:30;28.20;91.60
61386;DHT22;47256;18.904;-99.054;2023-06-01T07:21:59;28.20;91.70
61386;DHT22;47256;18.904;-99.054;2023-06-01T07:24:27;28.10;91.90
61386;DHT22;47256;18.904;-99.054;2023-06-01T07:26:54;28.10;92.00
61386;DHT22;47256;18.904;-99.054;2023-06-01T07:29:22;28.10;92.10
61386;DHT22;47256;18.904;-99.054;2023-06-01T07:31:52;28.20;92.00
61386;DHT22;47256;18.904;-99.054;2023-06-01T07:34:19;28.20;91.90
61386;DHT22;47256;18.904;-99.054;2023-06-01T07:36:49;28.20;92.10
61386;DHT22;47256;18.904;-99.054;2023-06-01T07:39:16;28.20;92.00
61386;DHT22;47256;18.904;-99.054;2023-06-01T07:41:46;28.20;92.50
61386;DHT22;47256;18.904;-99.054;2023-06-01T07:44:13;28.10;92.30
61386;DHT22;47256;18.904;-99.054;2023-06-01T07:46:45;28.10;92.00
61386;DHT22;47256;18.904;-99.054;2023-06-01T07:49:13;28.10;91.80
61386;DHT22;47256;18.904;-99.054;2023-06-01T07:51:42;28.10;92.00
61386;DHT22;47256;18.904;-99.054;2023-06-01T07:54:10;28.10;92.00
61386;DHT22;47256;18.904;-99.054;2023-06-01T07:56:37;28.10;92.20
61386;DHT22;47256;18.904;-99.054;2023-06-01T07:59:04;28.10;92.30
61386;DHT22;47256;18.904;-99.054;2023-06-01T08:01:32;28.00;92.60
61386;DHT22;47256;18.904;-99.054;2023-06-01T08:04:00;27.90;92.60
61386;DHT22;47256;18.904;-99.054;2023-06-01T08:06:28;27.90;92.90
61386;DHT22;47256;18.904;-99.054;2023-06-01T08:09:02;27.90;93.20
61386;DHT22;47256;18.904;-99.054;2023-06-01T08:11:30;27.90;93.40
61386;DHT22;47256;18.904;-99.054;2023-06-01T08:13:57;27.90;93.40
61386;DHT22;47256;18.904;-99.054;2023-06-01T08:16:29;28.00;93.50
61386;DHT22;47256;18.904;-99.054;2023-06-01T08:18:57;28.00;93.70
61386;DHT22;47256;18.904;-99.054;2023-06-01T08:21:25;28.00;93.80
61386;DHT22;47256;18.904;-99.054;2023-06-01T08:23:55;28.00;94.10
61386;DHT22;47256;18.904;-99.054;2023-06-01T08:26:23;27.90;94.20
61386;DHT22;47256;18.904;-99.054;2023-06-01T08:28:50;27.90;94.00
61386;DHT22;47256;18.904;-99.054;2023-06-01T08:31:21;27.80;94.20
61386;DHT22;47256;18.904;-99.054;2023-06-01T08:33:49;27.80;94.80
61386;DHT22;47256;18.904;-99.054;2023-06-01T08:36:21;27.80;94.70
61386;DHT22;47256;18.904;-99.054;2023-06-01T08:38:49;27.70;94.70
61386;DHT22;47256;18.904;-99.054;2023-06-01T08:41:25;27.70;94.80
61386;DHT22;47256;18.904;-99.054;2023-06-01T08:43:58;27.60;95.30
61386;DHT22;47256;18.904;-99.054;2023-06-01T08:46:27;27.60;95.50
61386;DHT22;47256;18.904;-99.054;2023-06-01T08:48:58;27.60;95.20
61386;DHT22;47256;18.904;-99.054;2023-06-01T08:51:26;27.60;94.40
61386;DHT22;47256;18.904;-99.054;2023-06-01T08:53:56;27.70;94.10
61386;DHT22;47256;18.904;-99.054;2023-06-01T08:56:24;27.70;93.70
61386;DHT22;47256;18.904;-99.054;2023-06-01T08:58:54;27.70;93.00
61386;DHT22;47256;18.904;-99.054;2023-06-01T09:01:23;27.70;92.80
61386;DHT22;47256;18.904;-99.054;2023-06-01T09:03:51;27.70;92.30
61386;DHT22;47256;18.904;-99.054;2023-06-01T09:06:19;27.60;92.20
61386;DHT22;47256;18.904;-99.054;2023-06-01T09:08:46;27.70;92.50
61386;DHT22;47256;18.904;-99.054;2023-06-01T09:11:13;27.60;92.50
61386;DHT22;47256;18.904;-99.054;2023-06-01T09:13:41;27.60;92.50
61386;DHT22;47256;18.904;-99.054;2023-06-01T09:16:08;27.60;92.50
61386;DHT22;47256;18.904;-99.054;2023-06-01T09:18:35;27.60;92.60
61386;DHT22;47256;18.904;-99.054;2023-06-01T09:21:13;27.60;92.60
61386;DHT22;47256;18.904;-99.054;2023-06-01T09:23:41;27.60;92.50
61386;DHT22;47256;18.904;-99.054;2023-06-01T09:26:13;27.60;93.00
61386;DHT22;47256;18.904;-99.054;2023-06-01T09:31:43;27.60;93.00
61386;DHT22;47256;18.904;-99.054;2023-06-01T09:34:20;27.70;93.20
61386;DHT22;47256;18.904;-99.054;2023-06-01T09:36:52;27.60;93.40
61386;DHT22;47256;18.904;-99.054;2023-06-01T09:39:21;27.50;93.30
61386;DHT22;47256;18.904;-99.054;2023-06-01T09:41:52;27.50;93.70
61386;DHT22;47256;18.904;-99.054;2023-06-01T09:44:30;27.40;93.50
61386;DHT22;47256;18.904;-99.054;2023-06-01T09:46:58;27.40;93.20
61386;DHT22;47256;18.904;-99.054;2023-06-01T09:49:30;27.50;93.20
61386;DHT22;47256;18.904;-99.054;2023-06-01T09:54:32;27.50;93.20
61386;DHT22;47256;18.904;-99.054;2023-06-01T09:57:01;27.50;93.20
61386;DHT22;47256;18.904;-99.054;2023-06-01T09:59:29;27.40;93.30
61386;DHT22;47256;18.904;-99.054;2023-06-01T10:01:58;27.50;93.60
61386;DHT22;47256;18.904;-99.054;2023-06-01T10:04:28;27.50;93.50
61386;DHT22;47256;18.904;-99.054;2023-06-01T10:06:56;27.50;94.30
61386;DHT22;47256;18.904;-99.054;2023-06-01T10:09:26;27.50;94.20
61386;DHT22;47256;18.904;-99.054;2023-06-01T10:11:54;27.50;93.70
61386;DHT22;47256;18.904;-99.054;2023-06-01T10:14:25;27.50;93.60
61386;DHT22;47256;18.904;-99.054;2023-06-01T10:16:53;27.50;93.50
61386;DHT22;47256;18.904;-99.054;2023-06-01T10:19:21;27.50;93.60
61386;DHT22;47256;18.904;-99.054;2023-06-01T10:21:48;27.50;93.50
61386;DHT22;47256;18.904;-99.054;2023-06-01T10:24:19;27.40;93.60
61386;DHT22;47256;18.904;-99.054;2023-06-01T10:26:56;27.40;93.80
61386;DHT22;47256;18.904;-99.054;2023-06-01T10:29:25;27.40;93.80
61386;DHT22;47256;18.904;-99.054;2023-06-01T10:31:54;27.40;93.80
61386;DHT22;47256;18.904;-99.054;2023-06-01T10:34:42;27.40;94.50
61386;DHT22;47256;18.904;-99.054;2023-06-01T10:37:11;27.30;94.30
61386;DHT22;47256;18.904;-99.054;2023-06-01T10:39:39;27.30;94.30
61386;DHT22;47256;18.904;-99.054;2023-06-01T10:52:30;27.30;94.60
61386;DHT22;47256;18.904;-99.054;2023-06-01T10:57:43;27.40;94.90
61386;DHT22;47256;18.904;-99.054;2023-06-01T11:00:21;27.30;94.90
61386;DHT22;47256;18.904;-99.054;2023-06-01T11:03:03;27.30;95.00
61386;DHT22;47256;18.904;-99.054;2023-06-01T11:05:35;27.30;94.90
61386;DHT22;47256;18.904;-99.054;2023-06-01T11:08:06;27.30;95.10
61386;DHT22;47256;18.904;-99.054;2023-06-01T11:13:25;27.20;94.80
61386;DHT22;47256;18.904;-99.054;2023-06-01T11:19:01;27.20;94.60
61386;DHT22;47256;18.904;-99.054;2023-06-01T11:21:42;27.20;94.60
61386;DHT22;47256;18.904;-99.054;2023-06-01T11:24:17;27.20;94.70
61386;DHT22;47256;18.904;-99.054;2023-06-01T11:26:46;27.10;94.90
61386;DHT22;47256;18.904;-99.054;2023-06-01T11:29:24;27.00;95.00
61386;DHT22;47256;18.904;-99.054;2023-06-01T11:31:57;27.00;94.90
61386;DHT22;47256;18.904;-99.054;2023-06-01T11:34:35;26.90;95.10
61386;DHT22;47256;18.904;-99.054;2023-06-01T11:37:18;26.90;95.40
61386;DHT22;47256;18.904;-99.054;2023-06-01T11:39:46;26.90;95.40
61386;DHT22;47256;18.904;-99.054;2023-06-01T11:42:18;26.90;95.10
61386;DHT22;47256;18.904;-99.054;2023-06-01T11:44:57;26.90;95.10
61386;DHT22;47256;18.904;-99.054;2023-06-01T11:47:29;26.90;95.20
61386;DHT22;47256;18.904;-99.054;2023-06-01T11:50:00;26.80;95.30
61386;DHT22;47256;18.904;-99.054;2023-06-01T11:52:27;26.80;95.30
61386;DHT22;47256;18.904;-99.054;2023-06-01T11:55:02;26.80;95.20
61386;DHT22;47256;18.904;-99.054;2023-06-01T11:57:30;26.80;95.60
61386;DHT22;47256;18.904;-99.054;2023-06-01T11:59:57;26.80;95.80
61386;DHT22;47256;18.904;-99.054;2023-06-01T12:02:27;26.80;95.70
61386;DHT22;47256;18.904;-99.054;2023-06-01T12:05:01;26.70;95.80
61386;DHT22;47256;18.904;-99.054;2023-06-01T12:07:53;26.70;96.00
61386;DHT22;47256;18.904;-99.054;2023-06-01T12:10:21;26.70;96.10
61386;DHT22;47256;18.904;-99.054;2023-06-01T12:12:49;26.70;96.20
61386;DHT22;47256;18.904;-99.054;2023-06-01T12:15:17;26.70;96.80
61386;DHT22;47256;18.904;-99.054;2023-06-01T12:17:53;26.60;96.50
61386;DHT22;47256;18.904;-99.054;2023-06-01T12:22:58;26.50;96.80
61386;DHT22;47256;18.904;-99.054;2023-06-01T12:25:27;26.50;96.80
61386;DHT22;47256;18.904;-99.054;2023-06-01T12:28:07;26.50;97.10
61386;DHT22;47256;18.904;-99.054;2023-06-01T12:30:37;26.50;97.30
61386;DHT22;47256;18.904;-99.054;2023-06-01T12:33:04;26.50;97.30
61386;DHT22;47256;18.904;-99.054;2023-06-01T12:35:32;26.50;97.40
61386;DHT22;47256;18.904;-99.054;2023-06-01T12:40:34;26.50;97.70
61386;DHT22;47256;18.904;-99.054;2023-06-01T12:43:01;26.40;98.00
61386;DHT22;47256;18.904;-99.054;2023-06-01T12:45:35;26.40;97.90
61386;DHT22;47256;18.904;-99.054;2023-06-01T12:48:03;26.30;98.50
61386;DHT22;47256;18.904;-99.054;2023-06-01T12:50:30;26.20;98.70
61386;DHT22;47256;18.904;-99.054;2023-06-01T12:52:57;26.20;99.00
61386;DHT22;47256;18.904;-99.054;2023-06-01T12:55:24;26.30;99.20
61386;DHT22;47256;18.904;-99.054;2023-06-01T12:57:55;26.40;99.40
61386;DHT22;47256;18.904;-99.054;2023-06-01T13:00:22;26.40;99.40
61386;DHT22;47256;18.904;-99.054;2023-06-01T13:02:50;26.40;99.60
61386;DHT22;47256;18.904;-99.054;2023-06-01T13:05:18;26.40;99.50
61386;DHT22;47256;18.904;-99.054;2023-06-01T13:07:45;26.50;99.50
61386;DHT22;47256;18.904;-99.054;2023-06-01T13:10:13;26.50;98.40
61386;DHT22;47256;18.904;-99.054;2023-06-01T13:12:40;26.60;97.90
61386;DHT22;47256;18.904;-99.054;2023-06-01T13:15:08;26.60;97.80
61386;DHT22;47256;18.904;-99.054;2023-06-01T13:17:36;26.60;97.60
61386;DHT22;47256;18.904;-99.054;2023-06-01T13:20:05;26.70;97.70
61386;DHT22;47256;18.904;-99.054;2023-06-01T13:22:33;26.70;97.60
61386;DHT22;47256;18.904;-99.054;2023-06-01T13:25:00;26.70;97.60
61386;DHT22;47256;18.904;-99.054;2023-06-01T13:27:28;26.60;97.70
61386;DHT22;47256;18.904;-99.054;2023-06-01T13:29:55;26.70;97.60
61386;DHT22;47256;18.904;-99.054;2023-06-01T13:32:22;26.70;97.60
61386;DHT22;47256;18.904;-99.054;2023-06-01T13:34:49;26.70;97.40
61386;DHT22;47256;18.904;-99.054;2023-06-01T13:37:16;26.80;97.60
61386;DHT22;47256;18.904;-99.054;2023-06-01T13:39:44;26.80;97.50
61386;DHT22;47256;18.904;-99.054;2023-06-01T13:42:11;26.80;97.50
61386;DHT22;47256;18.904;-99.054;2023-06-01T13:44:38;26.90;97.80
61386;DHT22;47256;18.904;-99.054;2023-06-01T13:47:06;26.90;98.00
61386;DHT22;47256;18.904;-99.054;2023-06-01T13:49:33;26.90;97.80
61386;DHT22;47256;18.904;-99.054;2023-06-01T13:52:00;27.00;98.10
61386;DHT22;47256;18.904;-99.054;2023-06-01T13:54:27;27.00;98.00
61386;DHT22;47256;18.904;-99.054;2023-06-01T13:56:54;27.00;97.80
61386;DHT22;47256;18.904;-99.054;2023-06-01T13:59:21;27.00;97.80
61386;DHT22;47256;18.904;-99.054;2023-06-01T14:01:48;27.10;97.20
61386;DHT22;47256;18.904;-99.054;2023-06-01T14:04:17;27.20;97.00
61386;DHT22;47256;18.904;-99.054;2023-06-01T14:06:45;27.20;96.90
61386;DHT22;47256;18.904;-99.054;2023-06-01T14:09:13;27.30;96.60
61386;DHT22;47256;18.904;-99.054;2023-06-01T14:11:40;27.30;96.50
61386;DHT22;47256;18.904;-99.054;2023-06-01T14:14:07;27.30;96.50
61386;DHT22;47256;18.904;-99.054;2023-06-01T14:16:34;27.30;95.90
61386;DHT22;47256;18.904;-99.054;2023-06-01T14:19:01;27.30;96.70
61386;DHT22;47256;18.904;-99.054;2023-06-01T14:21:29;27.40;96.20
61386;DHT22;47256;18.904;-99.054;2023-06-01T14:23:57;27.50;95.80
61386;DHT22;47256;18.904;-99.054;2023-06-01T14:26:24;27.50;96.30
61386;DHT22;47256;18.904;-99.054;2023-06-01T14:28:52;27.60;96.10
61386;DHT22;47256;18.904;-99.054;2023-06-01T14:31:19;27.60;96.00
61386;DHT22;47256;18.904;-99.054;2023-06-01T14:33:49;27.60;95.60
61386;DHT22;47256;18.904;-99.054;2023-06-01T14:36:16;27.70;95.80
61386;DHT22;47256;18.904;-99.054;2023-06-01T14:38:44;27.80;95.40
61386;DHT22;47256;18.904;-99.054;2023-06-01T14:41:12;27.70;95.50
61386;DHT22;47256;18.904;-99.054;2023-06-01T14:43:39;27.80;95.30
61386;DHT22;47256;18.904;-99.054;2023-06-01T14:46:06;27.90;95.10
61386;DHT22;47256;18.904;-99.054;2023-06-01T14:48:34;27.90;95.30
61386;DHT22;47256;18.904;-99.054;2023-06-01T14:51:01;28.00;94.90
61386;DHT22;47256;18.904;-99.054;2023-06-01T14:53:28;28.00;95.00
61386;DHT22;47256;18.904;-99.054;2023-06-01T14:55:55;28.10;94.70
61386;DHT22;47256;18.904;-99.054;2023-06-01T14:58:22;28.10;94.20
61386;DHT22;47256;18.904;-99.054;2023-06-01T15:00:49;28.10;94.20
61386;DHT22;47256;18.904;-99.054;2023-06-01T15:03:42;28.10;94.00
61386;DHT22;47256;18.904;-99.054;2023-06-01T15:06:09;28.20;94.00
61386;DHT22;47256;18.904;-99.054;2023-06-01T15:08:36;28.30;94.10
61386;DHT22;47256;18.904;-99.054;2023-06-01T15:11:03;28.30;94.00
61386;DHT22;47256;18.904;-99.054;2023-06-01T15:13:30;28.40;93.80
61386;DHT22;47256;18.904;-99.054;2023-06-01T15:15:57;28.50;94.10
61386;DHT22;47256;18.904;-99.054;2023-06-01T15:18:24;28.60;93.30
61386;DHT22;47256;18.904;-99.054;2023-06-01T15:20:51;28.50;93.30
61386;DHT22;47256;18.904;-99.054;2023-06-01T15:23:18;28.50;93.20
61386;DHT22;47256;18.904;-99.054;2023-06-01T15:25:45;28.50;93.30
61386;DHT22;47256;18.904;-99.054;2023-06-01T15:28:13;28.60;93.90
61386;DHT22;47256;18.904;-99.054;2023-06-01T15:30:39;28.70;93.80
61386;DHT22;47256;18.904;-99.054;2023-06-01T15:33:07;28.70;93.30
61386;DHT22;47256;18.904;-99.054;2023-06-01T15:35:33;28.60;93.20
61386;DHT22;47256;18.904;-99.054;2023-06-01T15:38:01;28.60;93.10
61386;DHT22;47256;18.904;-99.054;2023-06-01T15:40:28;28.70;94.30
61386;DHT22;47256;18.904;-99.054;2023-06-01T15:42:55;28.70;92.80
61386;DHT22;47256;18.904;-99.054;2023-06-01T15:45:22;28.80;92.80
61386;DHT22;47256;18.904;-99.054;2023-06-01T15:47:49;28.90;93.60
61386;DHT22;47256;18.904;-99.054;2023-06-01T15:50:16;29.10;93.60
61386;DHT22;47256;18.904;-99.054;2023-06-01T15:52:43;29.40;94.00
61386;DHT22;47256;18.904;-99.054;2023-06-01T15:55:10;29.50;93.40
61386;DHT22;47256;18.904;-99.054;2023-06-01T15:57:37;29.70;92.70
61386;DHT22;47256;18.904;-99.054;2023-06-01T16:00:04;29.80;92.60